sensor_id;sensor_type;location;lat;lon;timestamp;temperature;humidity
52495;DHT22;38405;53.212;5.660;2023-02-23T00:01:21;7.30;99.90
52495;DHT22;38405;53.212;5.660;2023-02-23T00:03:47;7.30;99.90
52495;DHT22;38405;53.212;5.660;2023-02-23T00:06:17;7.30;99.90
52495;DHT22;38405;53.212;5.660;2023-02-23T00:08:43;7.60;99.90
52495;DHT22;38405;53.212;5.660;2023-02-23T00:11:21;7.40;99.90
52495;DHT22;38405;53.212;5.660;2023-02-23T00:13:48;7.30;99.90
52495;DHT22;38405;53.212;5.660;2023-02-23T00:16:24;7.30;99.90
52495;DHT22;38405;53.212;5.660;2023-02-23T00:18:56;7.30;99.90
52495;DHT22;38405;53.212;5.660;2023-02-23T00:21:31;6.70;99.90
52495;DHT22;38405;53.212;5.660;2023-02-23T00:24:04;7.30;99.90
52495;DHT22;38405;53.212;5.660;2023-02-23T00:26:32;7.30;99.90
52495;DHT22;38405;53.212;5.660;2023-02-23T00:29:07;7.40;99.90
52495;DHT22;38405;53.212;5.660;2023-02-23T00:31:33;7.30;99.90
52495;DHT22;38405;53.212;5.660;2023-02-23T00:34:01;7.40;99.90
52495;DHT22;38405;53.212;5.660;2023-02-23T00:36:32;7.40;99.90
52495;DHT22;38405;53.212;5.660;2023-02-23T00:39:01;7.30;99.90
52495;DHT22;38405;53.212;5.660;2023-02-23T00:41:27;7.60;99.90
52495;DHT22;38405;53.212;5.660;2023-02-23T00:43:58;7.30;99.90
52495;DHT22;38405;53.212;5.660;2023-02-23T00:46:26;7.30;99.90
52495;DHT22;38405;53.212;5.660;2023-02-23T00:48:53;7.30;99.90
52495;DHT22;38405;53.212;5.660;2023-02-23T00:51:23;7.40;99.90
52495;DHT22;38405;53.212;5.660;2023-02-23T00:53:54;7.30;99.90
52495;DHT22;38405;53.212;5.660;2023-02-23T00:56:20;7.30;99.90
52495;DHT22;38405;53.212;5.660;2023-02-23T00:58:46;7.30;99.90
52495;DHT22;38405;53.212;5.660;2023-02-23T01:01:12;7.40;99.90
52495;DHT22;38405;53.212;5.660;2023-02-23T01:03:40;7.40;99.90
52495;DHT22;38405;53.212;5.660;2023-02-23T01:06:09;7.40;99.90
52495;DHT22;38405;53.212;5.660;2023-02-23T01:08:38;7.30;99.90
52495;DHT22;38405;53.212;5.660;2023-02-23T01:11:18;7.30;99.90
52495;DHT22;38405;53.212;5.660;2023-02-23T01:13:47;7.30;99.90
52495;DHT22;38405;53.212;5.660;2023-02-23T01:16:16;7.30;99.90
52495;DHT22;38405;53.212;5.660;2023-02-23T01:18:45;7.30;99.90
52495;DHT22;38405;53.212;5.660;2023-02-23T01:21:19;7.30;99.90
52495;DHT22;38405;53.212;5.660;2023-02-23T01:23:45;7.30;99.90
52495;DHT22;38405;53.212;5.660;2023-02-23T01:26:22;7.30;99.90
52495;DHT22;38405;53.212;5.660;2023-02-23T01:28:53;7.30;99.90
52495;DHT22;38405;53.212;5.660;2023-02-23T01:31:20;7.30;99.90
52495;DHT22;38405;53.212;5.660;2023-02-23T01:33:51;7.30;99.90
52495;DHT22;38405;53.212;5.660;2023-02-23T01:36:17;7.30;99.90
52495;DHT22;38405;53.212;5.660;2023-02-23T01:38:43;7.30;99.90
52495;DHT22;38405;53.212;5.660;2023-02-23T01:41:08;7.30;99.90
52495;DHT22;38405;53.212;5.660;2023-02-23T01:43:34;7.30;99.90
52495;DHT22;38405;53.212;5.660;2023-02-23T01:48:31;7.30;99.90
52495;DHT22;38405;53.212;5.660;2023-02-23T01:51:13;7.30;99.90
52495;DHT22;38405;53.212;5.660;2023-02-23T01:54:34;7.30;99.90
52495;DHT22;38405;53.212;5.660;2023-02-23T01:56:44;7.20;99.90
52495;DHT22;38405;53.212;5.660;2023-02-23T01:59:13;7.30;99.90
52495;DHT22;38405;53.212;5.660;2023-02-23T02:01:41;7.20;99.90
52495;DHT22;38405;53.212;5.660;2023-02-23T02:04:08;7.20;99.90
52495;DHT22;38405;53.212;5.660;2023-02-23T02:06:36;7.20;99.90
52495;DHT22;38405;53.212;5.660;2023-02-23T02:09:12;7.20;99.90
52495;DHT22;38405;53.212;5.660;2023-02-23T02:11:42;7.20;99.90
52495;DHT22;38405;53.212;5.660;2023-02-23T02:14:26;7.10;99.90
52495;DHT22;38405;53.212;5.660;2023-02-23T02:17:22;7.20;99.90
52495;DHT22;38405;53.212;5.660;2023-02-23T02:34:48;6.90;99.90
52495;DHT22;38405;53.212;5.660;2023-02-23T02:43:30;6.80;99.90
52495;DHT22;38405;53.212;5.660;2023-02-23T02:46:31;6.90;99.90
52495;DHT22;38405;53.212;5.660;2023-02-23T02:49:28;6.60;99.90
52495;DHT22;38405;53.212;5.660;2023-02-23T02:54:50;6.40;99.90
52495;DHT22;38405;53.212;5.660;2023-02-23T02:57:19;6.40;99.90
52495;DHT22;38405;53.212;5.660;2023-02-23T02:59:48;6.30;99.90
52495;DHT22;38405;53.212;5.660;2023-02-23T03:02:36;6.30;99.90
52495;DHT22;38405;53.212;5.660;2023-02-23T03:05:43;6.20;99.90
52495;DHT22;38405;53.212;5.660;2023-02-23T03:08:47;6.20;99.90
52495;DHT22;38405;53.212;5.660;2023-02-23T03:11:45;6.10;99.90
52495;DHT22;38405;53.212;5.660;2023-02-23T03:14:40;6.20;99.90
52495;DHT22;38405;53.212;5.660;2023-02-23T03:17:34;6.10;99.90
52495;DHT22;38405;53.212;5.660;2023-02-23T03:20:41;6.40;99.90
52495;DHT22;38405;53.212;5.660;2023-02-23T03:23:45;6.20;99.90
52495;DHT22;38405;53.212;5.660;2023-02-23T03:26:42;6.20;99.90
52495;DHT22;38405;53.212;5.660;2023-02-23T03:32:41;6.30;99.90
52495;DHT22;38405;53.212;5.660;2023-02-23T03:35:50;6.30;99.90
52495;DHT22;38405;53.212;5.660;2023-02-23T03:41:43;6.30;99.90
52495;DHT22;38405;53.212;5.660;2023-02-23T03:44:33;6.30;99.90
52495;DHT22;38405;53.212;5.660;2023-02-23T03:47:22;6.30;99.90
52495;DHT22;38405;53.212;5.660;2023-02-23T03:50:10;6.40;99.90
52495;DHT22;38405;53.212;5.660;2023-02-23T03:52:58;6.40;99.90
52495;DHT22;38405;53.212;5.660;2023-02-23T03:55:48;6.40;99.90
52495;DHT22;38405;53.212;5.660;2023-02-23T03:58:41;6.50;99.90
52495;DHT22;38405;53.212;5.660;2023-02-23T04:01:27;6.50;99.90
52495;DHT22;38405;53.212;5.660;2023-02-23T04:04:11;6.50;99.90
52495;DHT22;38405;53.212;5.660;2023-02-23T04:07:01;6.50;99.90
52495;DHT22;38405;53.212;5.660;2023-02-23T04:09:46;6.50;99.90
52495;DHT22;38405;53.212;5.660;2023-02-23T04:12:41;6.50;99.90
52495;DHT22;38405;53.212;5.660;2023-02-23T04:18:14;6.60;99.90
52495;DHT22;38405;53.212;5.660;2023-02-23T04:20:40;6.60;99.90
52495;DHT22;38405;53.212;5.660;2023-02-23T04:23:06;7.00;99.90
52495;DHT22;38405;53.212;5.660;2023-02-23T04:25:34;6.60;99.90
52495;DHT22;38405;53.212;5.660;2023-02-23T04:28:00;6.60;99.90
52495;DHT22;38405;53.212;5.660;2023-02-23T04:30:26;6.60;99.90
52495;DHT22;38405;53.212;5.660;2023-02-23T04:32:53;6.60;99.90
52495;DHT22;38405;53.212;5.660;2023-02-23T04:35:19;6.60;99.90
52495;DHT22;38405;53.212;5.660;2023-02-23T04:37:44;6.60;99.90
52495;DHT22;38405;53.212;5.660;2023-02-23T04:40:10;6.60;99.90
52495;DHT22;38405;53.212;5.660;2023-02-23T04:42:39;6.60;99.90
52495;DHT22;38405;53.212;5.660;2023-02-23T04:45:06;6.60;99.90
52495;DHT22;38405;53.212;5.660;2023-02-23T04:47:32;6.60;99.90
52495;DHT22;38405;53.212;5.660;2023-02-23T04:49:58;6.70;99.90
52495;DHT22;38405;53.212;5.660;2023-02-23T04:52:23;6.90;99.90
52495;DHT22;38405;53.212;5.660;2023-02-23T04:54:49;6.70;99.90
52495;DHT22;38405;53.212;5.660;2023-02-23T04:57:15;7.10;99.90
52495;DHT22;38405;53.212;5.660;2023-02-23T04:59:40;6.60;99.90
52495;DHT22;38405;53.212;5.660;2023-02-23T05:02:07;6.70;99.90
52495;DHT22;38405;53.212;5.660;2023-02-23T05:04:33;6.60;99.90
52495;DHT22;38405;53.212;5.660;2023-02-23T05:07:01;6.60;99.90
52495;DHT22;38405;53.212;5.660;2023-02-23T05:09:28;6.70;99.90
52495;DHT22;38405;53.212;5.660;2023-02-23T05:11:54;6.70;99.90
52495;DHT22;38405;53.212;5.660;2023-02-23T05:14:20;6.70;99.90
52495;DHT22;38405;53.212;5.660;2023-02-23T05:16:45;6.70;99.90
52495;DHT22;38405;53.212;5.660;2023-02-23T05:19:11;6.80;99.90
52495;DHT22;38405;53.212;5.660;2023-02-23T05:21:37;6.70;99.90
52495;DHT22;38405;53.212;5.660;2023-02-23T05:24:06;6.70;99.90
52495;DHT22;38405;53.212;5.660;2023-02-23T05:26:32;6.70;99.90
52495;DHT22;38405;53.212;5.660;2023-02-23T05:28:58;6.70;99.90
52495;DHT22;38405;53.212;5.660;2023-02-23T05:31:24;6.80;99.90
52495;DHT22;38405;53.212;5.660;2023-02-23T05:33:54;6.80;99.90
52495;DHT22;38405;53.212;5.660;2023-02-23T05:36:20;7.20;99.90
52495;DHT22;38405;53.212;5.660;2023-02-23T05:38:46;6.80;99.90
52495;DHT22;38405;53.212;5.660;2023-02-23T05:41:15;6.90;99.90
52495;DHT22;38405;53.212;5.660;2023-02-23T05:43:42;6.80;99.90
52495;DHT22;38405;53.212;5.660;2023-02-23T05:46:15;6.80;99.90
52495;DHT22;38405;53.212;5.660;2023-02-23T05:48:41;6.80;99.90
52495;DHT22;38405;53.212;5.660;2023-02-23T05:51:09;6.80;99.90
52495;DHT22;38405;53.212;5.660;2023-02-23T05:53:36;6.80;99.90
52495;DHT22;38405;53.212;5.660;2023-02-23T05:56:03;6.80;99.90
52495;DHT22;38405;53.212;5.660;2023-02-23T05:58:30;6.80;99.90
52495;DHT22;38405;53.212;5.660;2023-02-23T06:00:56;6.90;99.90
52495;DHT22;38405;53.212;5.660;2023-02-23T06:03:21;6.80;99.90
52495;DHT22;38405;53.212;5.660;2023-02-23T06:05:55;6.80;99.90
52495;DHT22;38405;53.212;5.660;2023-02-23T06:08:22;6.80;99.90
52495;DHT22;38405;53.212;5.660;2023-02-23T06:10:49;7.10;99.90
52495;DHT22;38405;53.212;5.660;2023-02-23T06:13:15;6.80;99.90
52495;DHT22;38405;53.212;5.660;2023-02-23T06:15:41;6.90;99.90
52495;DHT22;38405;53.212;5.660;2023-02-23T06:18:07;7.20;99.90
52495;DHT22;38405;53.212;5.660;2023-02-23T06:20:33;6.80;99.90
52495;DHT22;38405;53.212;5.660;2023-02-23T06:22:59;6.90;99.90
52495;DHT22;38405;53.212;5.660;2023-02-23T06:25:25;7.00;99.90
52495;DHT22;38405;53.212;5.660;2023-02-23T06:27:51;6.90;99.90
52495;DHT22;38405;53.212;5.660;2023-02-23T06:30:18;7.20;99.90
52495;DHT22;38405;53.212;5.660;2023-02-23T06:32:43;6.90;99.90
52495;DHT22;38405;53.212;5.660;2023-02-23T06:35:09;7.20;99.90
52495;DHT22;38405;53.212;5.660;2023-02-23T06:37:35;6.90;99.90
52495;DHT22;38405;53.212;5.660;2023-02-23T06:40:02;6.90;99.90
52495;DHT22;38405;53.212;5.660;2023-02-23T06:42:28;6.90;99.90
52495;DHT22;38405;53.212;5.660;2023-02-23T06:44:53;7.00;99.90
52495;DHT22;38405;53.212;5.660;2023-02-23T06:47:19;6.90;99.90
52495;DHT22;38405;53.212;5.660;2023-02-23T06:49:45;6.90;99.90
52495;DHT22;38405;53.212;5.660;2023-02-23T06:52:12;6.90;99.90
52495;DHT22;38405;53.212;5.660;2023-02-23T06:54:39;7.00;99.90
52495;DHT22;38405;53.212;5.660;2023-02-23T06:57:06;6.90;99.90
52495;DHT22;38405;53.212;5.660;2023-02-23T06:59:32;7.00;99.90
52495;DHT22;38405;53.212;5.660;2023-02-23T07:01:58;7.00;99.90
52495;DHT22;38405;53.212;5.660;2023-02-23T07:04:24;7.20;99.90
52495;DHT22;38405;53.212;5.660;2023-02-23T07:06:51;7.00;99.90
52495;DHT22;38405;53.212;5.660;2023-02-23T07:09:16;7.00;99.90
52495;DHT22;38405;53.212;5.660;2023-02-23T07:11:42;7.00;99.90
52495;DHT22;38405;53.212;5.660;2023-02-23T07:14:10;7.00;99.90
52495;DHT22;38405;53.212;5.660;2023-02-23T07:16:36;7.00;99.90
52495;DHT22;38405;53.212;5.660;2023-02-23T07:19:03;6.90;99.90
52495;DHT22;38405;53.212;5.660;2023-02-23T07:21:30;7.10;99.90
52495;DHT22;38405;53.212;5.660;2023-02-23T07:23:59;7.10;99.90
52495;DHT22;38405;53.212;5.660;2023-02-23T07:26:25;7.10;99.90
52495;DHT22;38405;53.212;5.660;2023-02-23T07:28:54;7.00;99.90
52495;DHT22;38405;53.212;5.660;2023-02-23T07:31:20;7.10;99.90
52495;DHT22;38405;53.212;5.660;2023-02-23T07:33:45;7.10;99.90
52495;DHT22;38405;53.212;5.660;2023-02-23T07:36:13;7.10;99.90
52495;DHT22;38405;53.212;5.660;2023-02-23T07:38:39;7.20;99.90
52495;DHT22;38405;53.212;5.660;2023-02-23T07:41:04;7.20;99.90
52495;DHT22;38405;53.212;5.660;2023-02-23T07:43:30;7.20;99.90
52495;DHT22;38405;53.212;5.660;2023-02-23T07:46:00;7.30;99.90
52495;DHT22;38405;53.212;5.660;2023-02-23T07:48:28;7.30;99.90
52495;DHT22;38405;53.212;5.660;2023-02-23T07:50:54;7.40;99.90
52495;DHT22;38405;53.212;5.660;2023-02-23T07:53:20;7.20;99.90
52495;DHT22;38405;53.212;5.660;2023-02-23T07:55:47;7.20;99.90
52495;DHT22;38405;53.212;5.660;2023-02-23T07:58:19;7.30;99.90
52495;DHT22;38405;53.212;5.660;2023-02-23T08:00:45;7.30;99.90
52495;DHT22;38405;53.212;5.660;2023-02-23T08:03:12;7.30;99.90
52495;DHT22;38405;53.212;5.660;2023-02-23T08:05:37;7.30;99.90
52495;DHT22;38405;53.212;5.660;2023-02-23T08:08:05;7.30;99.90
52495;DHT22;38405;53.212;5.660;2023-02-23T08:10:31;7.40;99.90
52495;DHT22;38405;53.212;5.660;2023-02-23T08:12:57;7.40;99.90
52495;DHT22;38405;53.212;5.660;2023-02-23T08:15:23;7.40;99.90
52495;DHT22;38405;53.212;5.660;2023-02-23T08:17:52;7.50;99.90
52495;DHT22;38405;53.212;5.660;2023-02-23T08:20:17;7.50;99.90
52495;DHT22;38405;53.212;5.660;2023-02-23T08:22:46;7.50;99.90
52495;DHT22;38405;53.212;5.660;2023-02-23T08:25:11;7.50;99.90
52495;DHT22;38405;53.212;5.660;2023-02-23T08:27:37;7.60;99.90
52495;DHT22;38405;53.212;5.660;2023-02-23T08:30:14;7.70;99.90
52495;DHT22;38405;53.212;5.660;2023-02-23T08:32:40;7.70;99.90
52495;DHT22;38405;53.212;5.660;2023-02-23T08:35:06;7.70;99.90
52495;DHT22;38405;53.212;5.660;2023-02-23T08:37:32;7.70;99.90
52495;DHT22;38405;53.212;5.660;2023-02-23T08:40:01;7.70;99.90
52495;DHT22;38405;53.212;5.660;2023-02-23T08:42:27;7.80;99.90
52495;DHT22;38405;53.212;5.660;2023-02-23T08:44:53;7.80;99.90
52495;DHT22;38405;53.212;5.660;2023-02-23T08:47:18;7.80;99.90
52495;DHT22;38405;53.212;5.660;2023-02-23T08:49:47;7.80;99.90
52495;DHT22;38405;53.212;5.660;2023-02-23T08:52:15;7.80;99.90
52495;DHT22;38405;53.212;5.660;2023-02-23T08:54:41;7.80;99.90
52495;DHT22;38405;53.212;5.660;2023-02-23T08:57:07;7.80;99.90
52495;DHT22;38405;53.212;5.660;2023-02-23T08:59:33;7.80;99.90
52495;DHT22;38405;53.212;5.660;2023-02-23T09:01:58;8.00;99.90
52495;DHT22;38405;53.212;5.660;2023-02-23T09:04:24;7.90;99.90
52495;DHT22;38405;53.212;5.660;2023-02-23T09:06:53;7.80;99.90
52495;DHT22;38405;53.212;5.660;2023-02-23T09:09:24;7.90;99.90
52495;DHT22;38405;53.212;5.660;2023-02-23T09:11:50;7.90;99.90
52495;DHT22;38405;53.212;5.660;2023-02-23T09:14:16;8.10;99.90
52495;DHT22;38405;53.212;5.660;2023-02-23T09:16:41;8.10;99.90
52495;DHT22;38405;53.212;5.660;2023-02-23T09:19:08;8.30;99.90
52495;DHT22;38405;53.212;5.660;2023-02-23T09:21:34;8.10;99.90
52495;DHT22;38405;53.212;5.660;2023-02-23T09:24:00;8.20;99.90
52495;DHT22;38405;53.212;5.660;2023-02-23T09:26:25;8.30;99.90
52495;DHT22;38405;53.212;5.660;2023-02-23T09:28:54;8.30;99.90
52495;DHT22;38405;53.212;5.660;2023-02-23T09:31:22;8.30;99.90
52495;DHT22;38405;53.212;5.660;2023-02-23T09:33:48;8.30;99.90
52495;DHT22;38405;53.212;5.660;2023-02-23T09:36:17;8.40;99.90
52495;DHT22;38405;53.212;5.660;2023-02-23T09:38:44;8.30;99.90
52495;DHT22;38405;53.212;5.660;2023-02-23T09:44:01;8.30;99.90
52495;DHT22;38405;53.212;5.660;2023-02-23T09:46:48;8.30;99.90
52495;DHT22;38405;53.212;5.660;2023-02-23T09:49:22;8.40;99.90
52495;DHT22;38405;53.212;5.660;2023-02-23T09:51:53;8.40;99.90
52495;DHT22;38405;53.212;5.660;2023-02-23T09:54:31;8.50;99.90
52495;DHT22;38405;53.212;5.660;2023-02-23T09:57:01;8.60;99.90
52495;DHT22;38405;53.212;5.660;2023-02-23T09:59:28;8.70;99.90
52495;DHT22;38405;53.212;5.660;2023-02-23T10:02:03;8.70;99.90
52495;DHT22;38405;53.212;5.660;2023-02-23T10:04:42;8.70;99.90
52495;DHT22;38405;53.212;5.660;2023-02-23T10:12:48;9.00;99.90
52495;DHT22;38405;53.212;5.660;2023-02-23T10:29:38;9.30;99.90
52495;DHT22;38405;53.212;5.660;2023-02-23T10:34:39;9.40;99.90
52495;DHT22;38405;53.212;5.660;2023-02-23T10:37:09;9.40;99.90
52495;DHT22;38405;53.212;5.660;2023-02-23T10:39:35;9.50;99.90
52495;DHT22;38405;53.212;5.660;2023-02-23T10:42:06;9.50;99.90
52495;DHT22;38405;53.212;5.660;2023-02-23T10:44:37;9.40;99.90
52495;DHT22;38405;53.212;5.660;2023-02-23T10:47:11;9.50;99.90
52495;DHT22;38405;53.212;5.660;2023-02-23T10:49:47;9.30;99.90
52495;DHT22;38405;53.212;5.660;2023-02-23T10:52:30;9.30;99.90
52495;DHT22;38405;53.212;5.660;2023-02-23T10:54:57;9.20;99.90
52495;DHT22;38405;53.212;5.660;2023-02-23T10:57:27;9.20;99.90
52495;DHT22;38405;53.212;5.660;2023-02-23T11:00:09;9.10;99.90
52495;DHT22;38405;53.212;5.660;2023-02-23T11:02:51;9.10;99.90
52495;DHT22;38405;53.212;5.660;2023-02-23T11:05:33;9.00;99.90
52495;DHT22;38405;53.212;5.660;2023-02-23T11:08:32;9.00;99.90
52495;DHT22;38405;53.212;5.660;2023-02-23T11:13:38;9.00;99.90
52495;DHT22;38405;53.212;5.660;2023-02-23T11:18:32;8.90;99.90
52495;DHT22;38405;53.212;5.660;2023-02-23T11:21:01;8.80;99.90
52495;DHT22;38405;53.212;5.660;2023-02-23T11:23:36;8.70;99.90
52495;DHT22;38405;53.212;5.660;2023-02-23T11:28:51;8.50;99.90
52495;DHT22;38405;53.212;5.660;2023-02-23T11:31:32;8.40;99.90
52495;DHT22;38405;53.212;5.660;2023-02-23T11:34:01;8.50;99.90
52495;DHT22;38405;53.212;5.660;2023-02-23T11:36:35;8.40;99.90
52495;DHT22;38405;53.212;5.660;2023-02-23T11:42:03;8.40;99.90
52495;DHT22;38405;53.212;5.660;2023-02-23T11:44:29;8.40;99.90
52495;DHT22;38405;53.212;5.660;2023-02-23T11:46:55;8.50;99.90
52495;DHT22;38405;53.212;5.660;2023-02-23T11:49:32;8.40;99.90
52495;DHT22;38405;53.212;5.660;2023-02-23T11:52:01;8.30;99.90
52495;DHT22;38405;53.212;5.660;2023-02-23T11:54:32;8.20;99.90
52495;DHT22;38405;53.212;5.660;2023-02-23T11:56:58;8.10;99.90
52495;DHT22;38405;53.212;5.660;2023-02-23T11:59:32;8.10;99.90
52495;DHT22;38405;53.212;5.660;2023-02-23T12:02:20;8.00;99.90
52495;DHT22;38405;53.212;5.660;2023-02-23T12:04:50;7.90;99.90
52495;DHT22;38405;53.212;5.660;2023-02-23T12:07:35;7.80;99.90
52495;DHT22;38405;53.212;5.660;2023-02-23T12:10:30;7.80;99.90
52495;DHT22;38405;53.212;5.660;2023-02-23T12:16:00;7.80;99.90
52495;DHT22;38405;53.212;5.660;2023-02-23T12:24:12;7.60;99.90
52495;DHT22;38405;53.212;5.660;2023-02-23T12:29:38;7.50;99.90
52495;DHT22;38405;53.212;5.660;2023-02-23T12:32:13;7.50;99.90
52495;DHT22;38405;53.212;5.660;2023-02-23T12:37:29;7.50;99.90
52495;DHT22;38405;53.212;5.660;2023-02-23T12:40:15;7.60;99.90
52495;DHT22;38405;53.212;5.660;2023-02-23T12:42:48;8.10;99.90
52495;DHT22;38405;53.212;5.660;2023-02-23T12:45:48;7.70;99.90
52495;DHT22;38405;53.212;5.660;2023-02-23T12:48:30;7.70;99.90
52495;DHT22;38405;53.212;5.660;2023-02-23T12:51:00;7.70;99.90
52495;DHT22;38405;53.212;5.660;2023-02-23T12:53:37;7.70;99.90
52495;DHT22;38405;53.212;5.660;2023-02-23T12:59:13;7.80;99.90
52495;DHT22;38405;53.212;5.660;2023-02-23T13:02:02;7.80;99.90
52495;DHT22;38405;53.212;5.660;2023-02-23T13:07:38;7.70;99.90
52495;DHT22;38405;53.212;5.660;2023-02-23T13:12:47;7.80;99.90
52495;DHT22;38405;53.212;5.660;2023-02-23T13:20:53;7.90;99.90
52495;DHT22;38405;53.212;5.660;2023-02-23T13:26:06;7.80;99.90
52495;DHT22;38405;53.212;5.660;2023-02-23T13:28:55;7.70;99.90
52495;DHT22;38405;53.212;5.660;2023-02-23T13:31:23;7.60;99.90
52495;DHT22;38405;53.212;5.660;2023-02-23T13:33:51;7.50;99.90
52495;DHT22;38405;53.212;5.660;2023-02-23T13:36:19;7.50;99.90
52495;DHT22;38405;53.212;5.660;2023-02-23T13:41:35;7.30;99.90
52495;DHT22;38405;53.212;5.660;2023-02-23T13:44:33;7.20;99.90
52495;DHT22;38405;53.212;5.660;2023-02-23T13:47:38;7.10;99.90
52495;DHT22;38405;53.212;5.660;2023-02-23T13:53:05;6.90;99.90
52495;DHT22;38405;53.212;5.660;2023-02-23T13:55:32;7.30;99.90
52495;DHT22;38405;53.212;5.660;2023-02-23T13:58:17;6.90;99.90
52495;DHT22;38405;53.212;5.660;2023-02-23T14:00:53;6.90;99.90
52495;DHT22;38405;53.212;5.660;2023-02-23T14:03:24;7.20;99.90
52495;DHT22;38405;53.212;5.660;2023-02-23T14:05:54;6.90;99.90
52495;DHT22;38405;53.212;5.660;2023-02-23T14:08:36;6.90;99.90
52495;DHT22;38405;53.212;5.660;2023-02-23T14:11:04;6.80;99.90
52495;DHT22;38405;53.212;5.660;2023-02-23T14:13:33;6.80;99.90
52495;DHT22;38405;53.212;5.660;2023-02-23T14:24:21;6.90;99.90
52495;DHT22;38405;53.212;5.660;2023-02-23T14:29:39;6.90;99.90
52495;DHT22;38405;53.212;5.660;2023-02-23T14:34:52;7.00;99.90
52495;DHT22;38405;53.212;5.660;2023-02-23T14:37:35;7.00;99.90
52495;DHT22;38405;53.212;5.660;2023-02-23T14:40:13;7.10;99.90
52495;DHT22;38405;53.212;5.660;2023-02-23T14:42:40;7.10;99.90
52495;DHT22;38405;53.212;5.660;2023-02-23T14:45:26;7.20;99.90
52495;DHT22;38405;53.212;5.660;2023-02-23T14:48:02;7.20;99.90
52495;DHT22;38405;53.212;5.660;2023-02-23T14:50:34;7.20;99.90
52495;DHT22;38405;53.212;5.660;2023-02-23T14:53:00;7.20;99.90
52495;DHT22;38405;53.212;5.660;2023-02-23T14:55:31;7.20;99.90
52495;DHT22;38405;53.212;5.660;2023-02-23T14:58:01;7.20;99.90
52495;DHT22;38405;53.212;5.660;2023-02-23T15:00:32;7.20;99.90
52495;DHT22;38405;53.212;5.660;2023-02-23T15:03:07;7.20;99.90
52495;DHT22;38405;53.212;5.660;2023-02-23T15:05:59;7.20;99.90
52495;DHT22;38405;53.212;5.660;2023-02-23T15:08:27;7.30;99.90
52495;DHT22;38405;53.212;5.660;2023-02-23T15:11:12;7.30;99.90
52495;DHT22;38405;53.212;5.660;2023-02-23T15:13:49;7.30;99.90
52495;DHT22;38405;53.212;5.660;2023-02-23T15:16:23;7.20;99.90
52495;DHT22;38405;53.212;5.660;2023-02-23T15:18:51;7.20;99.90
52495;DHT22;38405;53.212;5.660;2023-02-23T15:21:19;7.30;99.90
52495;DHT22;38405;53.212;5.660;2023-02-23T15:23:57;7.20;99.90
52495;DHT22;38405;53.212;5.660;2023-02-23T15:26:27;7.20;99.90
52495;DHT22;38405;53.212;5.660;2023-02-23T15:29:18;7.10;99.90
52495;DHT22;38405;53.212;5.660;2023-02-23T15:31:48;7.10;99.90
52495;DHT22;38405;53.212;5.660;2023-02-23T15:34:19;7.20;99.90
52495;DHT22;38405;53.212;5.660;2023-02-23T15:37:09;7.10;99.90
52495;DHT22;38405;53.212;5.660;2023-02-23T15:39:36;7.10;99.90
52495;DHT22;38405;53.212;5.660;2023-02-23T15:42:04;7.10;99.90
52495;DHT22;38405;53.212;5.660;2023-02-23T15:44:30;7.40;99.90
52495;DHT22;38405;53.212;5.660;2023-02-23T15:47:02;7.10;99.90
52495;DHT22;38405;53.212;5.660;2023-02-23T15:49:32;7.10;99.90
52495;DHT22;38405;53.212;5.660;2023-02-23T15:52:14;7.00;99.90
52495;DHT22;38405;53.212;5.660;2023-02-23T15:54:48;7.00;99.90
52495;DHT22;38405;53.212;5.660;2023-02-23T15:57:20;7.00;99.90
52495;DHT22;38405;53.212;5.660;2023-02-23T15:59:51;7.00;99.90
52495;DHT22;38405;53.212;5.660;2023-02-23T16:02:22;6.90;99.90
52495;DHT22;38405;53.212;5.660;2023-02-23T16:04:50;6.90;99.90
52495;DHT22;38405;53.212;5.660;2023-02-23T16:07:21;6.90;99.90
52495;DHT22;38405;53.212;5.660;2023-02-23T16:09:53;6.90;99.90
52495;DHT22;38405;53.212;5.660;2023-02-23T16:12:20;6.70;99.90
52495;DHT22;38405;53.212;5.660;2023-02-23T16:14:59;6.70;99.90
52495;DHT22;38405;53.212;5.660;2023-02-23T16:17:59;6.70;99.90
52495;DHT22;38405;53.212;5.660;2023-02-23T16:20:41;6.60;99.90
52495;DHT22;38405;53.212;5.660;2023-02-23T16:26:10;6.60;99.90
52495;DHT22;38405;53.212;5.660;2023-02-23T16:28:42;6.60;99.90
52495;DHT22;38405;53.212;5.660;2023-02-23T16:31:22;6.50;99.90
52495;DHT22;38405;53.212;5.660;2023-02-23T16:33:52;6.60;99.90
52495;DHT22;38405;53.212;5.660;2023-02-23T16:36:23;6.60;99.90
52495;DHT22;38405;53.212;5.660;2023-02-23T16:39:05;6.60;99.90
52495;DHT22;38405;53.212;5.660;2023-02-23T16:41:33;6.50;99.90
52495;DHT22;38405;53.212;5.660;2023-02-23T16:44:04;6.50;99.90
52495;DHT22;38405;53.212;5.660;2023-02-23T16:49:26;6.40;99.90
52495;DHT22;38405;53.212;5.660;2023-02-23T16:51:55;6.40;99.90
52495;DHT22;38405;53.212;5.660;2023-02-23T16:54:24;6.40;99.90
52495;DHT22;38405;53.212;5.660;2023-02-23T16:56:50;6.40;99.90
52495;DHT22;38405;53.212;5.660;2023-02-23T16:59:20;6.30;99.90
52495;DHT22;38405;53.212;5.660;2023-02-23T17:01:46;6.30;99.90
52495;DHT22;38405;53.212;5.660;2023-02-23T17:04:18;6.30;99.90
52495;DHT22;38405;53.212;5.660;2023-02-23T17:06:47;6.30;99.90
52495;DHT22;38405;53.212;5.660;2023-02-23T17:09:22;6.30;99.90
52495;DHT22;38405;53.212;5.660;2023-02-23T17:11:48;6.20;99.90
52495;DHT22;38405;53.212;5.660;2023-02-23T17:14:23;6.30;99.90
52495;DHT22;38405;53.212;5.660;2023-02-23T17:16:55;6.10;99.90
52495;DHT22;38405;53.212;5.660;2023-02-23T17:19:24;6.10;99.90
52495;DHT22;38405;53.212;5.660;2023-02-23T17:21:49;6.00;99.90
52495;DHT22;38405;53.212;5.660;2023-02-23T17:24:18;6.10;99.90
52495;DHT22;38405;53.212;5.660;2023-02-23T17:26:44;5.90;99.90
52495;DHT22;38405;53.212;5.660;2023-02-23T17:29:10;5.80;99.90
52495;DHT22;38405;53.212;5.660;2023-02-23T17:31:36;5.70;99.90
52495;DHT22;38405;53.212;5.660;2023-02-23T17:34:02;5.70;99.90
52495;DHT22;38405;53.212;5.660;2023-02-23T17:36:28;5.50;99.90
52495;DHT22;38405;53.212;5.660;2023-02-23T17:38:54;5.40;99.90
52495;DHT22;38405;53.212;5.660;2023-02-23T17:41:26;5.30;99.90
52495;DHT22;38405;53.212;5.660;2023-02-23T17:43:51;4.60;99.90
52495;DHT22;38405;53.212;5.660;2023-02-23T17:46:17;5.00;99.90
52495;DHT22;38405;53.212;5.660;2023-02-23T17:48:43;4.90;99.90
52495;DHT22;38405;53.212;5.660;2023-02-23T17:51:11;4.80;99.90
52495;DHT22;38405;53.212;5.660;2023-02-23T17:53:38;4.60;99.90
52495;DHT22;38405;53.212;5.660;2023-02-23T17:56:05;4.50;99.90
52495;DHT22;38405;53.212;5.660;2023-02-23T17:58:31;4.40;99.90
52495;DHT22;38405;53.212;5.660;2023-02-23T18:00:59;4.30;99.90
52495;DHT22;38405;53.212;5.660;2023-02-23T18:03:27;4.10;99.90
52495;DHT22;38405;53.212;5.660;2023-02-23T18:06:08;4.10;99.90
52495;DHT22;38405;53.212;5.660;2023-02-23T18:08:35;4.00;99.90
52495;DHT22;38405;53.212;5.660;2023-02-23T18:11:01;3.90;99.90
52495;DHT22;38405;53.212;5.660;2023-02-23T18:13:28;3.90;99.90
52495;DHT22;38405;53.212;5.660;2023-02-23T18:15:58;3.80;99.90
52495;DHT22;38405;53.212;5.660;2023-02-23T18:18:24;3.80;99.90
52495;DHT22;38405;53.212;5.660;2023-02-23T18:20:51;3.80;99.90
52495;DHT22;38405;53.212;5.660;2023-02-23T18:23:18;3.70;99.90